Station Historical Data
Daily Summary for June 20, 2017 Units:  Both    English   Metric
« Previous Day
Next Day »
Daily Weekly Monthly Yearly Custom
  High: Low: Average:
Temperature: 72.1 °F /  22.3 °C 60.1 °F /  15.6 °C 67.1 °F /  19.5 °C
Dew Point: 61.9 °F /  16.6 °C 54.3 °F /  12.4 °C 58.1 °F /  14.5 °C
Humidity: 87% 64% 73%
Wind Speed: 19.0mph /  30.6km/h - 7.2mph /  11.6km/h
Wind Gust: 29.0mph /  46.7km/h - -
Wind- - WSW
Pressure: 29.93 in /  1013.4 hPa 29.74 in /  1007 hPa -
Precipitation: 0.00 in /  0 mm    
Historical Graphs
 
 
Tabular Data for June 20, 2017
Time Temperature Dew Point Pressure Wind Wind Speed Wind Gust Humidity Rainfall Rate (Hourly)
00:04 66.6 °F /  19.2 °C 58.8 °F /  14.9 °C 29.78in /  1008.4hPa SSW 7.0mph /  11.3km/h 10.0mph /  16.1km/h 76% 0.00in /  0mm
00:09 66.6 °F /  19.2 °C 59.2 °F /  15.1 °C 29.79in /  1008.7hPa SW 7.0mph /  11.3km/h 12.0mph /  19.3km/h 77% 0.00in /  0mm
00:14 66.5 °F /  19.2 °C 59.1 °F /  15.1 °C 29.78in /  1008.4hPa SW 6.0mph /  9.7km/h 12.0mph /  19.3km/h 77% 0.00in /  0mm
00:19 66.5 °F /  19.2 °C 59.1 °F /  15.1 °C 29.78in /  1008.4hPa SW 5.0mph /  8km/h 11.0mph /  17.7km/h 77% 0.00in /  0mm
00:24 66.4 °F /  19.1 °C 59.3 °F /  15.2 °C 29.78in /  1008.4hPa SW 5.0mph /  8km/h 11.0mph /  17.7km/h 78% 0.00in /  0mm
00:29 66.4 °F /  19.1 °C 59.3 °F /  15.2 °C 29.78in /  1008.4hPa WSW 5.0mph /  8km/h 10.0mph /  16.1km/h 78% 0.00in /  0mm
00:34 66.4 °F /  19.1 °C 59.7 °F /  15.4 °C 29.78in /  1008.4hPa WSW 11.0mph /  17.7km/h 11.0mph /  17.7km/h 79% 0.00in /  0mm
00:39 66.4 °F /  19.1 °C 59.7 °F /  15.4 °C 29.77in /  1008hPa SSW 4.0mph /  6.4km/h 11.0mph /  17.7km/h 79% 0.00in /  0mm
00:44 66.5 °F /  19.2 °C 60.1 °F /  15.6 °C 29.78in /  1008.4hPa WSW 5.0mph /  8km/h 11.0mph /  17.7km/h 80% 0.00in /  0mm
00:49 66.6 °F /  19.2 °C 60.2 °F /  15.7 °C 29.78in /  1008.4hPa WSW 10.0mph /  16.1km/h 13.0mph /  20.9km/h 80% 0.00in /  0mm
00:54 66.6 °F /  19.2 °C 60.2 °F /  15.7 °C 29.78in /  1008.4hPa WSW 8.0mph /  12.9km/h 17.0mph /  27.4km/h 80% 0.00in /  0mm
00:59 66.6 °F /  19.2 °C 59.9 °F /  15.5 °C 29.77in /  1008hPa SW 10.0mph /  16.1km/h 14.0mph /  22.5km/h 79% 0.00in /  0mm
01:04 66.6 °F /  19.2 °C 59.9 °F /  15.5 °C 29.77in /  1008hPa SW 5.0mph /  8km/h 15.0mph /  24.1km/h 79% 0.00in /  0mm
01:09 66.5 °F /  19.2 °C 59.8 °F /  15.4 °C 29.77in /  1008hPa SW 6.0mph /  9.7km/h 10.0mph /  16.1km/h 79% 0.00in /  0mm
01:14 66.5 °F /  19.2 °C 59.8 °F /  15.4 °C 29.77in /  1008hPa WSW 6.0mph /  9.7km/h 16.0mph /  25.7km/h 79% 0.00in /  0mm
01:19 66.5 °F /  19.2 °C 59.8 °F /  15.4 °C 29.77in /  1008hPa WSW 6.0mph /  9.7km/h 16.0mph /  25.7km/h 79% 0.00in /  0mm
01:24 66.4 °F /  19.1 °C 59.7 °F /  15.4 °C 29.76in /  1007.7hPa WSW 6.0mph /  9.7km/h 13.0mph /  20.9km/h 79% 0.00in /  0mm
01:29 66.4 °F /  19.1 °C 59.7 °F /  15.4 °C 29.76in /  1007.7hPa WSW 7.0mph /  11.3km/h 15.0mph /  24.1km/h 79% 0.00in /  0mm
01:34 66.3 °F /  19.1 °C 59.6 °F /  15.3 °C 29.77in /  1008hPa SW 6.0mph /  9.7km/h 15.0mph /  24.1km/h 79% 0.00in /  0mm
01:39 66.1 °F /  18.9 °C 59.4 °F /  15.2 °C 29.77in /  1008hPa SW 6.0mph /  9.7km/h 16.0mph /  25.7km/h 79% 0.00in /  0mm
01:44 66.0 °F /  18.9 °C 58.9 °F /  14.9 °C 29.76in /  1007.7hPa WSW 4.0mph /  6.4km/h 15.0mph /  24.1km/h 78% 0.00in /  0mm
01:49 65.9 °F /  18.8 °C 58.8 °F /  14.9 °C 29.76in /  1007.7hPa WSW 10.0mph /  16.1km/h 12.0mph /  19.3km/h 78% 0.00in /  0mm
01:54 65.9 °F /  18.8 °C 58.8 °F /  14.9 °C 29.77in /  1008hPa West 10.0mph /  16.1km/h 17.0mph /  27.4km/h 78% 0.00in /  0mm
01:59 65.8 °F /  18.8 °C 58.7 °F /  14.8 °C 29.76in /  1007.7hPa SW 4.0mph /  6.4km/h 13.0mph /  20.9km/h 78% 0.00in /  0mm
02:04 65.8 °F /  18.8 °C 58.7 °F /  14.8 °C 29.77in /  1008hPa West 5.0mph /  8km/h 12.0mph /  19.3km/h 78% 0.00in /  0mm
02:09 65.8 °F /  18.8 °C 58.7 °F /  14.8 °C 29.76in /  1007.7hPa SW 7.0mph /  11.3km/h 15.0mph /  24.1km/h 78% 0.00in /  0mm
02:14 65.5 °F /  18.6 °C 58.5 °F /  14.7 °C 29.77in /  1008hPa WSW 6.0mph /  9.7km/h 15.0mph /  24.1km/h 78% 0.00in /  0mm
02:19 65.4 °F /  18.6 °C 58.7 °F /  14.8 °C 29.77in /  1008hPa West 7.0mph /  11.3km/h 14.0mph /  22.5km/h 79% 0.00in /  0mm
02:24 65.3 °F /  18.5 °C 58.6 °F /  14.8 °C 29.77in /  1008hPa WSW 5.0mph /  8km/h 14.0mph /  22.5km/h 79% 0.00in /  0mm
02:29 65.3 °F /  18.5 °C 58.3 °F /  14.6 °C 29.77in /  1008hPa SW 4.0mph /  6.4km/h 12.0mph /  19.3km/h 78% 0.00in /  0mm
02:34 65.3 °F /  18.5 °C 58.3 °F /  14.6 °C 29.76in /  1007.7hPa NW 5.0mph /  8km/h 16.0mph /  25.7km/h 78% 0.00in /  0mm
02:39 65.3 °F /  18.5 °C 58.3 °F /  14.6 °C 29.77in /  1008hPa SW 7.0mph /  11.3km/h 16.0mph /  25.7km/h 78% 0.00in /  0mm
02:44 65.3 °F /  18.5 °C 58.3 °F /  14.6 °C 29.76in /  1007.7hPa SW 6.0mph /  9.7km/h 13.0mph /  20.9km/h 78% 0.00in /  0mm
02:49 65.3 °F /  18.5 °C 58.6 °F /  14.8 °C 29.77in /  1008hPa WSW 6.0mph /  9.7km/h 14.0mph /  22.5km/h 79% 0.00in /  0mm
02:54 65.3 °F /  18.5 °C 58.6 °F /  14.8 °C 29.77in /  1008hPa WSW 6.0mph /  9.7km/h 15.0mph /  24.1km/h 79% 0.00in /  0mm
02:59 65.3 °F /  18.5 °C 58.3 °F /  14.6 °C 29.76in /  1007.7hPa SW 7.0mph /  11.3km/h 15.0mph /  24.1km/h 78% 0.00in /  0mm
03:04 65.4 °F /  18.6 °C 58.4 °F /  14.7 °C 29.76in /  1007.7hPa SW 8.0mph /  12.9km/h 18.0mph /  29km/h 78% 0.00in /  0mm
03:09 65.4 °F /  18.6 °C 58.4 °F /  14.7 °C 29.76in /  1007.7hPa WSW 5.0mph /  8km/h 16.0mph /  25.7km/h 78% 0.00in /  0mm
03:14 65.4 °F /  18.6 °C 58.4 °F /  14.7 °C 29.75in /  1007.3hPa WSW 8.0mph /  12.9km/h 12.0mph /  19.3km/h 78% 0.00in /  0mm
03:19 65.4 °F /  18.6 °C 58.4 °F /  14.7 °C 29.75in /  1007.3hPa WSW 4.0mph /  6.4km/h 12.0mph /  19.3km/h 78% 0.00in /  0mm
03:24 65.4 °F /  18.6 °C 58.4 °F /  14.7 °C 29.74in /  1007hPa WSW 4.0mph /  6.4km/h 15.0mph /  24.1km/h 78% 0.00in /  0mm
03:29 65.2 °F /  18.4 °C 58.5 °F /  14.7 °C 29.74in /  1007hPa SSW 4.0mph /  6.4km/h 10.0mph /  16.1km/h 79% 0.00in /  0mm
03:34 65.0 °F /  18.3 °C 58.3 °F /  14.6 °C 29.74in /  1007hPa WSW 2.0mph /  3.2km/h 10.0mph /  16.1km/h 79% 0.00in /  0mm
03:39 64.8 °F /  18.2 °C 58.5 °F /  14.7 °C 29.74in /  1007hPa SW 5.0mph /  8km/h 12.0mph /  19.3km/h 80% 0.00in /  0mm
03:44 64.7 °F /  18.2 °C 58.4 °F /  14.7 °C 29.75in /  1007.3hPa SW 5.0mph /  8km/h 12.0mph /  19.3km/h 80% 0.00in /  0mm
03:49 64.6 °F /  18.1 °C 58.6 °F /  14.8 °C 29.75in /  1007.3hPa SW 5.0mph /  8km/h 11.0mph /  17.7km/h 81% 0.00in /  0mm
03:54 64.4 °F /  18 °C 58.4 °F /  14.7 °C 29.75in /  1007.3hPa SW 5.0mph /  8km/h 6.0mph /  9.7km/h 81% 0.00in /  0mm
03:59 64.3 °F /  17.9 °C 58.0 °F /  14.4 °C 29.75in /  1007.3hPa SSW 5.0mph /  8km/h 9.0mph /  14.5km/h 80% 0.00in /  0mm
04:04 64.2 °F /  17.9 °C 57.9 °F /  14.4 °C 29.75in /  1007.3hPa WSW 5.0mph /  8km/h 12.0mph /  19.3km/h 80% 0.00in /  0mm
04:09 64.0 °F /  17.8 °C 57.7 °F /  14.3 °C 29.76in /  1007.7hPa SW 6.0mph /  9.7km/h 12.0mph /  19.3km/h 80% 0.00in /  0mm
04:14 63.9 °F /  17.7 °C 58.0 °F /  14.4 °C 29.76in /  1007.7hPa SSW 7.0mph /  11.3km/h 12.0mph /  19.3km/h 81% 0.00in /  0mm
04:19 63.9 °F /  17.7 °C 58.0 °F /  14.4 °C 29.76in /  1007.7hPa WNW 7.0mph /  11.3km/h 10.0mph /  16.1km/h 81% 0.00in /  0mm
04:24 63.9 °F /  17.7 °C 57.6 °F /  14.2 °C 29.76in /  1007.7hPa WSW 2.0mph /  3.2km/h 12.0mph /  19.3km/h 80% 0.00in /  0mm
04:29 63.8 °F /  17.7 °C 57.2 °F /  14 °C 29.77in /  1008hPa WSW 10.0mph /  16.1km/h 13.0mph /  20.9km/h 79% 0.00in /  0mm
04:34 63.8 °F /  17.7 °C 57.2 °F /  14 °C 29.77in /  1008hPa WSW 7.0mph /  11.3km/h 13.0mph /  20.9km/h 79% 0.00in /  0mm
04:39 63.8 °F /  17.7 °C 57.2 °F /  14 °C 29.77in /  1008hPa WSW 7.0mph /  11.3km/h 15.0mph /  24.1km/h 79% 0.00in /  0mm
04:44 63.8 °F /  17.7 °C 57.2 °F /  14 °C 29.77in /  1008hPa West 6.0mph /  9.7km/h 15.0mph /  24.1km/h 79% 0.00in /  0mm
04:49 63.9 °F /  17.7 °C 57.3 °F /  14.1 °C 29.77in /  1008hPa WSW 6.0mph /  9.7km/h 13.0mph /  20.9km/h 79% 0.00in /  0mm
04:54 63.8 °F /  17.7 °C 57.2 °F /  14 °C 29.77in /  1008hPa WSW 7.0mph /  11.3km/h 20.0mph /  32.2km/h 79% 0.00in /  0mm
04:59 63.9 °F /  17.7 °C 57.3 °F /  14.1 °C 29.77in /  1008hPa West 8.0mph /  12.9km/h 18.0mph /  29km/h 79% 0.00in /  0mm
05:04 63.9 °F /  17.7 °C 57.3 °F /  14.1 °C 29.77in /  1008hPa SW 8.0mph /  12.9km/h 18.0mph /  29km/h 79% 0.00in /  0mm
05:09 63.9 °F /  17.7 °C 57.3 °F /  14.1 °C 29.78in /  1008.4hPa WSW 8.0mph /  12.9km/h 16.0mph /  25.7km/h 79% 0.00in /  0mm
05:14 64.0 °F /  17.8 °C 57.0 °F /  13.9 °C 29.78in /  1008.4hPa WSW 8.0mph /  12.9km/h 16.0mph /  25.7km/h 78% 0.00in /  0mm
05:19 64.0 °F /  17.8 °C 57.4 °F /  14.1 °C 29.78in /  1008.4hPa WSW 8.0mph /  12.9km/h 15.0mph /  24.1km/h 79% 0.00in /  0mm
05:24 64.0 °F /  17.8 °C 57.4 °F /  14.1 °C 29.78in /  1008.4hPa SW 7.0mph /  11.3km/h 15.0mph /  24.1km/h 79% 0.00in /  0mm
05:29 64.1 °F /  17.8 °C 57.5 °F /  14.2 °C 29.78in /  1008.4hPa WNW 3.0mph /  4.8km/h 10.0mph /  16.1km/h 79% 0.00in /  0mm
05:34 64.1 °F /  17.8 °C 57.5 °F /  14.2 °C 29.78in /  1008.4hPa West 5.0mph /  8km/h 11.0mph /  17.7km/h 79% 0.00in /  0mm
05:39 64.0 °F /  17.8 °C 56.6 °F /  13.7 °C 29.78in /  1008.4hPa WSW 8.0mph /  12.9km/h 16.0mph /  25.7km/h 77% 0.00in /  0mm
05:44 63.9 °F /  17.7 °C 56.2 °F /  13.4 °C 29.78in /  1008.4hPa WSW 6.0mph /  9.7km/h 15.0mph /  24.1km/h 76% 0.00in /  0mm
05:49 63.9 °F /  17.7 °C 56.2 °F /  13.4 °C 29.79in /  1008.7hPa WSW 3.0mph /  4.8km/h 12.0mph /  19.3km/h 76% 0.00in /  0mm
05:54 63.9 °F /  17.7 °C 56.2 °F /  13.4 °C 29.79in /  1008.7hPa WNW 9.0mph /  14.5km/h 11.0mph /  17.7km/h 76% 0.00in /  0mm
05:59 63.9 °F /  17.7 °C 56.2 °F /  13.4 °C 29.79in /  1008.7hPa West 4.0mph /  6.4km/h 11.0mph /  17.7km/h 76% 0.00in /  0mm
06:04 64.0 °F /  17.8 °C 56.3 °F /  13.5 °C 29.79in /  1008.7hPa WSW 7.0mph /  11.3km/h 17.0mph /  27.4km/h 76% 0.00in /  0mm
06:09 64.0 °F /  17.8 °C 56.3 °F /  13.5 °C 29.79in /  1008.7hPa WSW 7.0mph /  11.3km/h 17.0mph /  27.4km/h 76% 0.00in /  0mm
06:14 64.1 °F /  17.8 °C 56.4 °F /  13.6 °C 29.80in /  1009hPa West 7.0mph /  11.3km/h 13.0mph /  20.9km/h 76% 0.00in /  0mm
06:19 64.1 °F /  17.8 °C 56.0 °F /  13.3 °C 29.80in /  1009hPa West 6.0mph /  9.7km/h 13.0mph /  20.9km/h 75% 0.00in /  0mm
06:24 64.1 °F /  17.8 °C 56.0 °F /  13.3 °C 29.80in /  1009hPa West 6.0mph /  9.7km/h 10.0mph /  16.1km/h 75% 0.00in /  0mm
06:29 64.0 °F /  17.8 °C 55.9 °F /  13.3 °C 29.81in /  1009.4hPa WSW 10.0mph /  16.1km/h 12.0mph /  19.3km/h 75% 0.00in /  0mm
06:34 64.1 °F /  17.8 °C 55.6 °F /  13.1 °C 29.81in /  1009.4hPa West 4.0mph /  6.4km/h 13.0mph /  20.9km/h 74% 0.00in /  0mm
06:39 64.1 °F /  17.8 °C 55.6 °F /  13.1 °C 29.81in /  1009.4hPa West 7.0mph /  11.3km/h 9.0mph /  14.5km/h 74% 0.00in /  0mm
06:44 64.1 °F /  17.8 °C 55.6 °F /  13.1 °C 29.81in /  1009.4hPa SW 4.0mph /  6.4km/h 9.0mph /  14.5km/h 74% 0.00in /  0mm
06:49 64.1 °F /  17.8 °C 55.3 °F /  12.9 °C 29.82in /  1009.7hPa WSW 4.0mph /  6.4km/h 10.0mph /  16.1km/h 73% 0.00in /  0mm
06:54 64.2 °F /  17.9 °C 55.7 °F /  13.2 °C 29.82in /  1009.7hPa WSW 2.0mph /  3.2km/h 7.0mph /  11.3km/h 74% 0.00in /  0mm
06:59 64.2 °F /  17.9 °C 55.7 °F /  13.2 °C 29.82in /  1009.7hPa West 4.0mph /  6.4km/h 6.0mph /  9.7km/h 74% 0.00in /  0mm
07:04 64.2 °F /  17.9 °C 55.7 °F /  13.2 °C 29.82in /  1009.7hPa West 4.0mph /  6.4km/h 10.0mph /  16.1km/h 74% 0.00in /  0mm
07:09 64.4 °F /  18 °C 55.9 °F /  13.3 °C 29.82in /  1009.7hPa West 5.0mph /  8km/h 10.0mph /  16.1km/h 74% 0.00in /  0mm
07:14 64.6 °F /  18.1 °C 55.7 °F /  13.2 °C 29.82in /  1009.7hPa West 4.0mph /  6.4km/h 9.0mph /  14.5km/h 73% 0.00in /  0mm
07:19 64.4 °F /  18 °C 55.9 °F /  13.3 °C 29.82in /  1009.7hPa WSW 4.0mph /  6.4km/h 9.0mph /  14.5km/h 74% 0.00in /  0mm
07:24 64.5 °F /  18.1 °C 56.4 °F /  13.6 °C 29.82in /  1009.7hPa West 4.0mph /  6.4km/h 7.0mph /  11.3km/h 75% 0.00in /  0mm
07:29 64.8 °F /  18.2 °C 56.7 °F /  13.7 °C 29.83in /  1010hPa WSW 8.0mph /  12.9km/h 12.0mph /  19.3km/h 75% 0.00in /  0mm
07:34 65.1 °F /  18.4 °C 57.0 °F /  13.9 °C 29.83in /  1010hPa WSW 5.0mph /  8km/h 12.0mph /  19.3km/h 75% 0.00in /  0mm
07:39 65.4 °F /  18.6 °C 57.3 °F /  14.1 °C 29.83in /  1010hPa West 6.0mph /  9.7km/h 11.0mph /  17.7km/h 75% 0.00in /  0mm
07:44 65.7 °F /  18.7 °C 57.9 °F /  14.4 °C 29.83in /  1010hPa WSW 6.0mph /  9.7km/h 13.0mph /  20.9km/h 76% 0.00in /  0mm
07:49 65.4 °F /  18.6 °C 57.6 °F /  14.2 °C 29.83in /  1010hPa WSW 7.0mph /  11.3km/h 15.0mph /  24.1km/h 76% 0.00in /  0mm
07:54 65.3 °F /  18.5 °C 57.9 °F /  14.4 °C 29.84in /  1010.4hPa WSW 8.0mph /  12.9km/h 14.0mph /  22.5km/h 77% 0.00in /  0mm
07:59 65.2 °F /  18.4 °C 58.2 °F /  14.6 °C 29.84in /  1010.4hPa West 4.0mph /  6.4km/h 13.0mph /  20.9km/h 78% 0.00in /  0mm
08:04 65.3 °F /  18.5 °C 57.9 °F /  14.4 °C 29.84in /  1010.4hPa WSW 8.0mph /  12.9km/h 17.0mph /  27.4km/h 77% 0.00in /  0mm
08:09 66.1 °F /  18.9 °C 58.7 °F /  14.8 °C 29.85in /  1010.7hPa West 10.0mph /  16.1km/h 13.0mph /  20.9km/h 77% 0.00in /  0mm
08:14 66.4 °F /  19.1 °C 58.2 °F /  14.6 °C 29.84in /  1010.4hPa SW 4.0mph /  6.4km/h 15.0mph /  24.1km/h 75% 0.00in /  0mm
08:19 65.8 °F /  18.8 °C 58.0 °F /  14.4 °C 29.84in /  1010.4hPa SW 11.0mph /  17.7km/h 12.0mph /  19.3km/h 76% 0.00in /  0mm
08:24 65.4 °F /  18.6 °C 58.0 °F /  14.4 °C 29.84in /  1010.4hPa SW 2.0mph /  3.2km/h 11.0mph /  17.7km/h 77% 0.00in /  0mm
08:29 65.3 °F /  18.5 °C 58.3 °F /  14.6 °C 29.85in /  1010.7hPa WSW 5.0mph /  8km/h 11.0mph /  17.7km/h 78% 0.00in /  0mm
08:34 65.3 °F /  18.5 °C 58.3 °F /  14.6 °C 29.85in /  1010.7hPa WSW 5.0mph /  8km/h 15.0mph /  24.1km/h 78% 0.00in /  0mm
08:39 65.3 °F /  18.5 °C 58.6 °F /  14.8 °C 29.85in /  1010.7hPa WSW 6.0mph /  9.7km/h 15.0mph /  24.1km/h 79% 0.00in /  0mm
08:44 65.6 °F /  18.7 °C 58.9 °F /  14.9 °C 29.85in /  1010.7hPa WSW 5.0mph /  8km/h 13.0mph /  20.9km/h 79% 0.00in /  0mm
08:49 65.9 °F /  18.8 °C 58.5 °F /  14.7 °C 29.85in /  1010.7hPa WSW 6.0mph /  9.7km/h 9.0mph /  14.5km/h 77% 0.00in /  0mm
08:54 66.0 °F /  18.9 °C 58.2 °F /  14.6 °C 29.85in /  1010.7hPa West 10.0mph /  16.1km/h 14.0mph /  22.5km/h 76% 0.00in /  0mm
08:59 66.1 °F /  18.9 °C 57.9 °F /  14.4 °C 29.86in /  1011.1hPa WSW 7.0mph /  11.3km/h 14.0mph /  22.5km/h 75% 0.00in /  0mm
09:04 65.5 °F /  18.6 °C 57.4 °F /  14.1 °C 29.86in /  1011.1hPa WSW 7.0mph /  11.3km/h 14.0mph /  22.5km/h 75% 0.00in /  0mm
09:14 65.2 °F /  18.4 °C 57.1 °F /  13.9 °C 29.86in /  1011.1hPa SW 9.0mph /  14.5km/h 15.0mph /  24.1km/h 75% 0.00in /  0mm
09:19 65.3 °F /  18.5 °C 57.2 °F /  14 °C 29.86in /  1011.1hPa West 4.0mph /  6.4km/h 10.0mph /  16.1km/h 75% 0.00in /  0mm
09:24 65.5 °F /  18.6 °C 57.0 °F /  13.9 °C 29.86in /  1011.1hPa SW 6.0mph /  9.7km/h 12.0mph /  19.3km/h 74% 0.00in /  0mm
09:29 65.6 °F /  18.7 °C 56.7 °F /  13.7 °C 29.86in /  1011.1hPa SW 6.0mph /  9.7km/h 15.0mph /  24.1km/h 73% 0.00in /  0mm
09:34 65.7 °F /  18.7 °C 56.8 °F /  13.8 °C 29.86in /  1011.1hPa WSW 6.0mph /  9.7km/h 11.0mph /  17.7km/h 73% 0.00in /  0mm
09:39 66.1 °F /  18.9 °C 57.6 °F /  14.2 °C 29.86in /  1011.1hPa West 4.0mph /  6.4km/h 12.0mph /  19.3km/h 74% 0.00in /  0mm
09:44 66.7 °F /  19.3 °C 57.4 °F /  14.1 °C 29.86in /  1011.1hPa NW 8.0mph /  12.9km/h 15.0mph /  24.1km/h 72% 0.00in /  0mm
09:49 66.4 °F /  19.1 °C 56.7 °F /  13.7 °C 29.86in /  1011.1hPa SW 11.0mph /  17.7km/h 17.0mph /  27.4km/h 71% 0.00in /  0mm
09:54 66.3 °F /  19.1 °C 57.0 °F /  13.9 °C 29.86in /  1011.1hPa WSW 8.0mph /  12.9km/h 17.0mph /  27.4km/h 72% 0.00in /  0mm
09:59 66.4 °F /  19.1 °C 57.1 °F /  13.9 °C 29.86in /  1011.1hPa SW 7.0mph /  11.3km/h 15.0mph /  24.1km/h 72% 0.00in /  0mm
10:04 67.0 °F /  19.4 °C 58.1 °F /  14.5 °C 29.86in /  1011.1hPa WSW 7.0mph /  11.3km/h 15.0mph /  24.1km/h 73% 0.00in /  0mm
10:09 67.7 °F /  19.8 °C 58.3 °F /  14.6 °C 29.87in /  1011.4hPa WSW 7.0mph /  11.3km/h 19.0mph /  30.6km/h 72% 0.00in /  0mm
10:14 68.8 °F /  20.4 °C 59.4 °F /  15.2 °C 29.86in /  1011.1hPa WSW 7.0mph /  11.3km/h 19.0mph /  30.6km/h 72% 0.00in /  0mm
10:19 69.0 °F /  20.6 °C 59.6 °F /  15.3 °C 29.86in /  1011.1hPa WSW 3.0mph /  4.8km/h 15.0mph /  24.1km/h 72% 0.00in /  0mm
10:24 69.8 °F /  21 °C 59.6 °F /  15.3 °C 29.86in /  1011.1hPa WSW 6.0mph /  9.7km/h 18.0mph /  29km/h 70% 0.00in /  0mm
10:29 69.4 °F /  20.8 °C 59.2 °F /  15.1 °C 29.86in /  1011.1hPa WSW 7.0mph /  11.3km/h 18.0mph /  29km/h 70% 0.00in /  0mm
10:34 69.9 °F /  21.1 °C 58.9 °F /  14.9 °C 29.86in /  1011.1hPa WSW 12.0mph /  19.3km/h 14.0mph /  22.5km/h 68% 0.00in /  0mm
10:39 69.4 °F /  20.8 °C 59.2 °F /  15.1 °C 29.86in /  1011.1hPa West 5.0mph /  8km/h 22.0mph /  35.4km/h 70% 0.00in /  0mm
10:44 70.2 °F /  21.2 °C 60.0 °F /  15.6 °C 29.85in /  1010.7hPa West 6.0mph /  9.7km/h 11.0mph /  17.7km/h 70% 0.00in /  0mm
10:49 70.3 °F /  21.3 °C 59.2 °F /  15.1 °C 29.85in /  1010.7hPa WSW 10.0mph /  16.1km/h 19.0mph /  30.6km/h 68% 0.00in /  0mm
10:54 70.0 °F /  21.1 °C 59.4 °F /  15.2 °C 29.85in /  1010.7hPa WSW 8.0mph /  12.9km/h 19.0mph /  30.6km/h 69% 0.00in /  0mm
10:59 70.4 °F /  21.3 °C 60.5 °F /  15.8 °C 29.86in /  1011.1hPa WSW 8.0mph /  12.9km/h 19.0mph /  30.6km/h 71% 0.00in /  0mm
11:04 70.6 °F /  21.4 °C 60.3 °F /  15.7 °C 29.86in /  1011.1hPa WSW 7.0mph /  11.3km/h 18.0mph /  29km/h 70% 0.00in /  0mm
11:09 70.9 °F /  21.6 °C 60.6 °F /  15.9 °C 29.86in /  1011.1hPa WSW 8.0mph /  12.9km/h 18.0mph /  29km/h 70% 0.00in /  0mm
11:14 69.5 °F /  20.8 °C 59.3 °F /  15.2 °C 29.86in /  1011.1hPa West 9.0mph /  14.5km/h 16.0mph /  25.7km/h 70% 0.00in /  0mm
11:19 68.5 °F /  20.3 °C 59.5 °F /  15.3 °C 29.86in /  1011.1hPa WSW 13.0mph /  20.9km/h 17.0mph /  27.4km/h 73% 0.00in /  0mm
11:24 68.2 °F /  20.1 °C 59.6 °F /  15.3 °C 29.86in /  1011.1hPa WSW 8.0mph /  12.9km/h 17.0mph /  27.4km/h 74% 0.00in /  0mm
11:29 68.1 °F /  20.1 °C 59.1 °F /  15.1 °C 29.86in /  1011.1hPa WSW 9.0mph /  14.5km/h 17.0mph /  27.4km/h 73% 0.00in /  0mm
11:34 68.4 °F /  20.2 °C 59.8 °F /  15.4 °C 29.86in /  1011.1hPa WSW 9.0mph /  14.5km/h 19.0mph /  30.6km/h 74% 0.00in /  0mm
11:39 68.0 °F /  20 °C 59.8 °F /  15.4 °C 29.86in /  1011.1hPa WSW 9.0mph /  14.5km/h 20.0mph /  32.2km/h 75% 0.00in /  0mm
11:44 69.2 °F /  20.7 °C 59.8 °F /  15.4 °C 29.87in /  1011.4hPa WSW 12.0mph /  19.3km/h 22.0mph /  35.4km/h 72% 0.00in /  0mm
11:49 69.9 °F /  21.1 °C 59.7 °F /  15.4 °C 29.87in /  1011.4hPa WSW 12.0mph /  19.3km/h 19.0mph /  30.6km/h 70% 0.00in /  0mm
11:54 69.8 °F /  21 °C 59.2 °F /  15.1 °C 29.86in /  1011.1hPa West 14.0mph /  22.5km/h 20.0mph /  32.2km/h 69% 0.00in /  0mm
11:59 69.5 °F /  20.8 °C 60.1 °F /  15.6 °C 29.87in /  1011.4hPa SSW 10.0mph /  16.1km/h 22.0mph /  35.4km/h 72% 0.00in /  0mm
12:04 70.1 °F /  21.2 °C 59.5 °F /  15.3 °C 29.87in /  1011.4hPa WSW 10.0mph /  16.1km/h 20.0mph /  32.2km/h 69% 0.00in /  0mm
12:09 70.7 °F /  21.5 °C 60.4 °F /  15.8 °C 29.86in /  1011.1hPa WSW 2.0mph /  3.2km/h 20.0mph /  32.2km/h 70% 0.00in /  0mm
12:14 70.9 °F /  21.6 °C 60.6 °F /  15.9 °C 29.87in /  1011.4hPa South 12.0mph /  19.3km/h 22.0mph /  35.4km/h 70% 0.00in /  0mm
12:19 70.7 °F /  21.5 °C 60.8 °F /  16 °C 29.87in /  1011.4hPa SW 10.0mph /  16.1km/h 22.0mph /  35.4km/h 71% 0.00in /  0mm
12:24 69.8 °F /  21 °C 60.4 °F /  15.8 °C 29.86in /  1011.1hPa SW 11.0mph /  17.7km/h 22.0mph /  35.4km/h 72% 0.00in /  0mm
12:29 71.0 °F /  21.7 °C 60.3 °F /  15.7 °C 29.87in /  1011.4hPa SW 10.0mph /  16.1km/h 22.0mph /  35.4km/h 69% 0.00in /  0mm
12:34 70.3 °F /  21.3 °C 60.4 °F /  15.8 °C 29.87in /  1011.4hPa WSW 10.0mph /  16.1km/h 22.0mph /  35.4km/h 71% 0.00in /  0mm
12:39 70.7 °F /  21.5 °C 60.4 °F /  15.8 °C 29.87in /  1011.4hPa NW 8.0mph /  12.9km/h 16.0mph /  25.7km/h 70% 0.00in /  0mm
12:44 70.2 °F /  21.2 °C 60.4 °F /  15.8 °C 29.86in /  1011.1hPa WSW 13.0mph /  20.9km/h 18.0mph /  29km/h 71% 0.00in /  0mm
12:49 70.5 °F /  21.4 °C 60.2 °F /  15.7 °C 29.86in /  1011.1hPa SW 9.0mph /  14.5km/h 18.0mph /  29km/h 70% 0.00in /  0mm
12:54 70.3 °F /  21.3 °C 60.4 °F /  15.8 °C 29.86in /  1011.1hPa West 11.0mph /  17.7km/h 18.0mph /  29km/h 71% 0.00in /  0mm
12:59 70.7 °F /  21.5 °C 60.0 °F /  15.6 °C 29.86in /  1011.1hPa WSW 8.0mph /  12.9km/h 19.0mph /  30.6km/h 69% 0.00in /  0mm
13:04 70.8 °F /  21.6 °C 60.5 °F /  15.8 °C 29.86in /  1011.1hPa SW 14.0mph /  22.5km/h 19.0mph /  30.6km/h 70% 0.00in /  0mm
13:09 70.6 °F /  21.4 °C 60.3 °F /  15.7 °C 29.86in /  1011.1hPa SW 11.0mph /  17.7km/h 22.0mph /  35.4km/h 70% 0.00in /  0mm
13:14 71.0 °F /  21.7 °C 60.3 °F /  15.7 °C 29.86in /  1011.1hPa WSW 11.0mph /  17.7km/h 23.0mph /  37km/h 69% 0.00in /  0mm
13:19 70.8 °F /  21.6 °C 60.1 °F /  15.6 °C 29.86in /  1011.1hPa WSW 10.0mph /  16.1km/h 24.0mph /  38.6km/h 69% 0.00in /  0mm
13:24 71.4 °F /  21.9 °C 59.9 °F /  15.5 °C 29.86in /  1011.1hPa WSW 11.0mph /  17.7km/h 24.0mph /  38.6km/h 67% 0.00in /  0mm
13:29 71.3 °F /  21.8 °C 59.8 °F /  15.4 °C 29.86in /  1011.1hPa SW 11.0mph /  17.7km/h 23.0mph /  37km/h 67% 0.00in /  0mm
13:34 71.7 °F /  22.1 °C 60.2 °F /  15.7 °C 29.86in /  1011.1hPa SW 10.0mph /  16.1km/h 25.0mph /  40.2km/h 67% 0.00in /  0mm
13:39 70.8 °F /  21.6 °C 59.3 °F /  15.2 °C 29.86in /  1011.1hPa SW 9.0mph /  14.5km/h 24.0mph /  38.6km/h 67% 0.00in /  0mm
13:44 70.8 °F /  21.6 °C 60.1 °F /  15.6 °C 29.86in /  1011.1hPa SW 12.0mph /  19.3km/h 24.0mph /  38.6km/h 69% 0.00in /  0mm
13:49 70.7 °F /  21.5 °C 60.0 °F /  15.6 °C 29.86in /  1011.1hPa SW 11.0mph /  17.7km/h 25.0mph /  40.2km/h 69% 0.00in /  0mm
13:54 70.8 °F /  21.6 °C 58.9 °F /  14.9 °C 29.87in /  1011.4hPa SW 11.0mph /  17.7km/h 25.0mph /  40.2km/h 66% 0.00in /  0mm
13:59 70.5 °F /  21.4 °C 59.0 °F /  15 °C 29.87in /  1011.4hPa SW 18.0mph /  29km/h 25.0mph /  40.2km/h 67% 0.00in /  0mm
14:04 70.4 °F /  21.3 °C 59.3 °F /  15.2 °C 29.87in /  1011.4hPa WSW 12.0mph /  19.3km/h 26.0mph /  41.8km/h 68% 0.00in /  0mm
14:09 70.6 °F /  21.4 °C 59.1 °F /  15.1 °C 29.87in /  1011.4hPa SW 12.0mph /  19.3km/h 25.0mph /  40.2km/h 67% 0.00in /  0mm
14:14 70.6 °F /  21.4 °C 59.1 °F /  15.1 °C 29.86in /  1011.1hPa WSW 12.0mph /  19.3km/h 25.0mph /  40.2km/h 67% 0.00in /  0mm
14:19 70.3 °F /  21.3 °C 58.8 °F /  14.9 °C 29.87in /  1011.4hPa WSW 13.0mph /  20.9km/h 21.0mph /  33.8km/h 67% 0.00in /  0mm
14:24 70.3 °F /  21.3 °C 59.6 °F /  15.3 °C 29.87in /  1011.4hPa SSE 10.0mph /  16.1km/h 23.0mph /  37km/h 69% 0.00in /  0mm
14:29 70.8 °F /  21.6 °C 60.1 °F /  15.6 °C 29.87in /  1011.4hPa WSW 11.0mph /  17.7km/h 23.0mph /  37km/h 69% 0.00in /  0mm
14:34 70.8 °F /  21.6 °C 59.7 °F /  15.4 °C 29.86in /  1011.1hPa West 14.0mph /  22.5km/h 21.0mph /  33.8km/h 68% 0.00in /  0mm
14:39 70.9 °F /  21.6 °C 59.4 °F /  15.2 °C 29.87in /  1011.4hPa SW 9.0mph /  14.5km/h 24.0mph /  38.6km/h 67% 0.00in /  0mm
14:44 70.7 °F /  21.5 °C 59.2 °F /  15.1 °C 29.87in /  1011.4hPa WSW 12.0mph /  19.3km/h 28.0mph /  45.1km/h 67% 0.00in /  0mm
14:49 70.9 °F /  21.6 °C 59.4 °F /  15.2 °C 29.87in /  1011.4hPa WSW 12.0mph /  19.3km/h 28.0mph /  45.1km/h 67% 0.00in /  0mm
14:54 71.4 °F /  21.9 °C 59.4 °F /  15.2 °C 29.87in /  1011.4hPa WSW 11.0mph /  17.7km/h 23.0mph /  37km/h 66% 0.00in /  0mm
14:59 70.9 °F /  21.6 °C 59.4 °F /  15.2 °C 29.87in /  1011.4hPa WSW 12.0mph /  19.3km/h 24.0mph /  38.6km/h 67% 0.00in /  0mm
15:04 70.8 °F /  21.6 °C 59.7 °F /  15.4 °C 29.87in /  1011.4hPa WSW 13.0mph /  20.9km/h 24.0mph /  38.6km/h 68% 0.00in /  0mm
15:09 71.5 °F /  21.9 °C 60.0 °F /  15.6 °C 29.88in /  1011.7hPa WSW 11.0mph /  17.7km/h 29.0mph /  46.7km/h 67% 0.00in /  0mm
15:14 71.4 °F /  21.9 °C 59.9 °F /  15.5 °C 29.88in /  1011.7hPa West 10.0mph /  16.1km/h 22.0mph /  35.4km/h 67% 0.00in /  0mm
15:19 71.1 °F /  21.7 °C 59.6 °F /  15.3 °C 29.87in /  1011.4hPa SW 17.0mph /  27.4km/h 22.0mph /  35.4km/h 67% 0.00in /  0mm
15:24 71.4 °F /  21.9 °C 59.9 °F /  15.5 °C 29.86in /  1011.1hPa WSW 9.0mph /  14.5km/h 21.0mph /  33.8km/h 67% 0.00in /  0mm
15:29 72.1 °F /  22.3 °C 60.1 °F /  15.6 °C 29.87in /  1011.4hPa SW 8.0mph /  12.9km/h 18.0mph /  29km/h 66% 0.00in /  0mm
15:34 71.6 °F /  22 °C 60.1 °F /  15.6 °C 29.88in /  1011.7hPa WSW 8.0mph /  12.9km/h 21.0mph /  33.8km/h 67% 0.00in /  0mm
15:39 71.6 °F /  22 °C 60.5 °F /  15.8 °C 29.88in /  1011.7hPa SW 9.0mph /  14.5km/h 22.0mph /  35.4km/h 68% 0.00in /  0mm
15:44 71.5 °F /  21.9 °C 61.2 °F /  16.2 °C 29.88in /  1011.7hPa WSW 11.0mph /  17.7km/h 22.0mph /  35.4km/h 70% 0.00in /  0mm
15:49 70.9 °F /  21.6 °C 60.2 °F /  15.7 °C 29.88in /  1011.7hPa WSW 12.0mph /  19.3km/h 25.0mph /  40.2km/h 69% 0.00in /  0mm
15:54 70.4 °F /  21.3 °C 60.5 °F /  15.8 °C 29.88in /  1011.7hPa SSE 9.0mph /  14.5km/h 18.0mph /  29km/h 71% 0.00in /  0mm
15:59 69.6 °F /  20.9 °C 60.2 °F /  15.7 °C 29.89in /  1012.1hPa West 15.0mph /  24.1km/h 21.0mph /  33.8km/h 72% 0.00in /  0mm
16:04 69.3 °F /  20.7 °C 60.3 °F /  15.7 °C 29.88in /  1011.7hPa WSW 11.0mph /  17.7km/h 22.0mph /  35.4km/h 73% 0.00in /  0mm
16:09 68.6 °F /  20.3 °C 60.0 °F /  15.6 °C 29.88in /  1011.7hPa WSW 11.0mph /  17.7km/h 22.0mph /  35.4km/h 74% 0.00in /  0mm
16:14 68.0 °F /  20 °C 58.6 °F /  14.8 °C 29.89in /  1012.1hPa WSW 10.0mph /  16.1km/h 22.0mph /  35.4km/h 72% 0.00in /  0mm
16:19 67.4 °F /  19.7 °C 56.5 °F /  13.6 °C 29.89in /  1012.1hPa WSW 9.0mph /  14.5km/h 20.0mph /  32.2km/h 68% 0.00in /  0mm
16:24 68.1 °F /  20.1 °C 58.7 °F /  14.8 °C 29.89in /  1012.1hPa WSW 8.0mph /  12.9km/h 21.0mph /  33.8km/h 72% 0.00in /  0mm
16:29 69.4 °F /  20.8 °C 61.1 °F /  16.2 °C 29.88in /  1011.7hPa WSW 7.0mph /  11.3km/h 22.0mph /  35.4km/h 75% 0.00in /  0mm
16:34 69.5 °F /  20.8 °C 60.5 °F /  15.8 °C 29.88in /  1011.7hPa West 8.0mph /  12.9km/h 18.0mph /  29km/h 73% 0.00in /  0mm
16:39 70.4 °F /  21.3 °C 60.9 °F /  16.1 °C 29.89in /  1012.1hPa SW 14.0mph /  22.5km/h 21.0mph /  33.8km/h 72% 0.00in /  0mm
16:44 70.1 °F /  21.2 °C 60.3 °F /  15.7 °C 29.88in /  1011.7hPa West 13.0mph /  20.9km/h 21.0mph /  33.8km/h 71% 0.00in /  0mm
16:49 70.4 °F /  21.3 °C 61.3 °F /  16.3 °C 29.88in /  1011.7hPa West 13.0mph /  20.9km/h 21.0mph /  33.8km/h 73% 0.00in /  0mm
16:54 70.7 °F /  21.5 °C 61.2 °F /  16.2 °C 29.88in /  1011.7hPa West 6.0mph /  9.7km/h 22.0mph /  35.4km/h 72% 0.00in /  0mm
16:59 70.4 °F /  21.3 °C 60.5 °F /  15.8 °C 29.88in /  1011.7hPa SW 12.0mph /  19.3km/h 19.0mph /  30.6km/h 71% 0.00in /  0mm
17:04 70.4 °F /  21.3 °C 60.5 °F /  15.8 °C 29.88in /  1011.7hPa West 17.0mph /  27.4km/h 23.0mph /  37km/h 71% 0.00in /  0mm
17:09 70.3 °F /  21.3 °C 60.4 °F /  15.8 °C 29.89in /  1012.1hPa WSW 11.0mph /  17.7km/h 23.0mph /  37km/h 71% 0.00in /  0mm
17:14 70.3 °F /  21.3 °C 60.8 °F /  16 °C 29.89in /  1012.1hPa WSW 10.0mph /  16.1km/h 21.0mph /  33.8km/h 72% 0.00in /  0mm
17:19 70.6 °F /  21.4 °C 61.9 °F /  16.6 °C 29.89in /  1012.1hPa WSW 9.0mph /  14.5km/h 21.0mph /  33.8km/h 74% 0.00in /  0mm
17:24 70.5 °F /  21.4 °C 61.0 °F /  16.1 °C 29.89in /  1012.1hPa WSW 8.0mph /  12.9km/h 18.0mph /  29km/h 72% 0.00in /  0mm
17:29 70.3 °F /  21.3 °C 60.8 °F /  16 °C 29.88in /  1011.7hPa SW 9.0mph /  14.5km/h 19.0mph /  30.6km/h 72% 0.00in /  0mm
17:34 70.3 °F /  21.3 °C 60.8 °F /  16 °C 29.88in /  1011.7hPa WSW 8.0mph /  12.9km/h 21.0mph /  33.8km/h 72% 0.00in /  0mm
17:39 70.1 °F /  21.2 °C 59.9 °F /  15.5 °C 29.88in /  1011.7hPa SW 11.0mph /  17.7km/h 27.0mph /  43.5km/h 70% 0.00in /  0mm
17:44 70.0 °F /  21.1 °C 60.2 °F /  15.7 °C 29.88in /  1011.7hPa WNW 7.0mph /  11.3km/h 19.0mph /  30.6km/h 71% 0.00in /  0mm
17:49 70.1 °F /  21.2 °C 59.9 °F /  15.5 °C 29.88in /  1011.7hPa WSW 13.0mph /  20.9km/h 18.0mph /  29km/h 70% 0.00in /  0mm
17:54 70.2 °F /  21.2 °C 60.4 °F /  15.8 °C 29.88in /  1011.7hPa SW 5.0mph /  8km/h 23.0mph /  37km/h 71% 0.00in /  0mm
17:59 70.6 °F /  21.4 °C 59.5 °F /  15.3 °C 29.88in /  1011.7hPa WSW 8.0mph /  12.9km/h 16.0mph /  25.7km/h 68% 0.00in /  0mm
18:04 70.5 °F /  21.4 °C 58.6 °F /  14.8 °C 29.88in /  1011.7hPa WSW 8.0mph /  12.9km/h 18.0mph /  29km/h 66% 0.00in /  0mm
18:09 70.2 °F /  21.2 °C 58.7 °F /  14.8 °C 29.88in /  1011.7hPa WSW 9.0mph /  14.5km/h 20.0mph /  32.2km/h 67% 0.00in /  0mm
18:14 69.9 °F /  21.1 °C 58.4 °F /  14.7 °C 29.88in /  1011.7hPa WSW 10.0mph /  16.1km/h 20.0mph /  32.2km/h 67% 0.00in /  0mm
18:19 69.8 °F /  21 °C 58.3 °F /  14.6 °C 29.88in /  1011.7hPa SW 11.0mph /  17.7km/h 20.0mph /  32.2km/h 67% 0.00in /  0mm
18:24 69.7 °F /  20.9 °C 58.3 °F /  14.6 °C 29.88in /  1011.7hPa SW 9.0mph /  14.5km/h 22.0mph /  35.4km/h 67% 0.00in /  0mm
18:29 69.8 °F /  21 °C 58.3 °F /  14.6 °C 29.88in /  1011.7hPa SSW 9.0mph /  14.5km/h 18.0mph /  29km/h 67% 0.00in /  0mm
18:34 69.8 °F /  21 °C 58.3 °F /  14.6 °C 29.88in /  1011.7hPa SW 9.0mph /  14.5km/h 18.0mph /  29km/h 67% 0.00in /  0mm
18:39 69.6 °F /  20.9 °C 58.2 °F /  14.6 °C 29.88in /  1011.7hPa WSW 5.0mph /  8km/h 19.0mph /  30.6km/h 67% 0.00in /  0mm
18:44 69.9 °F /  21.1 °C 58.9 °F /  14.9 °C 29.88in /  1011.7hPa SW 7.0mph /  11.3km/h 16.0mph /  25.7km/h 68% 0.00in /  0mm
18:49 69.7 °F /  20.9 °C 58.7 °F /  14.8 °C 29.88in /  1011.7hPa SW 13.0mph /  20.9km/h 17.0mph /  27.4km/h 68% 0.00in /  0mm
18:54 69.5 °F /  20.8 °C 58.5 °F /  14.7 °C 29.89in /  1012.1hPa SSW 10.0mph /  16.1km/h 17.0mph /  27.4km/h 68% 0.00in /  0mm
18:59 69.4 °F /  20.8 °C 58.4 °F /  14.7 °C 29.89in /  1012.1hPa WSW 7.0mph /  11.3km/h 17.0mph /  27.4km/h 68% 0.00in /  0mm
19:04 69.4 °F /  20.8 °C 58.4 °F /  14.7 °C 29.89in /  1012.1hPa SW 9.0mph /  14.5km/h 18.0mph /  29km/h 68% 0.00in /  0mm
19:09 69.2 °F /  20.7 °C 57.8 °F /  14.3 °C 29.89in /  1012.1hPa SW 19.0mph /  30.6km/h 19.0mph /  30.6km/h 67% 0.00in /  0mm
19:14 69.0 °F /  20.6 °C 57.6 °F /  14.2 °C 29.89in /  1012.1hPa SW 9.0mph /  14.5km/h 20.0mph /  32.2km/h 67% 0.00in /  0mm
19:19 69.0 °F /  20.6 °C 57.6 °F /  14.2 °C 29.89in /  1012.1hPa SSE 4.0mph /  6.4km/h 15.0mph /  24.1km/h 67% 0.00in /  0mm
19:24 69.0 °F /  20.6 °C 57.2 °F /  14 °C 29.89in /  1012.1hPa SW 11.0mph /  17.7km/h 18.0mph /  29km/h 66% 0.00in /  0mm
19:29 69.0 °F /  20.6 °C 56.7 °F /  13.7 °C 29.89in /  1012.1hPa WSW 9.0mph /  14.5km/h 18.0mph /  29km/h 65% 0.00in /  0mm
19:34 68.9 °F /  20.5 °C 56.6 °F /  13.7 °C 29.89in /  1012.1hPa SW 8.0mph /  12.9km/h 17.0mph /  27.4km/h 65% 0.00in /  0mm
19:39 69.0 °F /  20.6 °C 56.7 °F /  13.7 °C 29.89in /  1012.1hPa West 11.0mph /  17.7km/h 12.0mph /  19.3km/h 65% 0.00in /  0mm
19:44 69.0 °F /  20.6 °C 56.3 °F /  13.5 °C 29.89in /  1012.1hPa West 8.0mph /  12.9km/h 16.0mph /  25.7km/h 64% 0.00in /  0mm
19:49 68.7 °F /  20.4 °C 56.0 °F /  13.3 °C 29.88in /  1011.7hPa West 10.0mph /  16.1km/h 14.0mph /  22.5km/h 64% 0.00in /  0mm
19:54 68.5 °F /  20.3 °C 56.3 °F /  13.5 °C 29.89in /  1012.1hPa SSW 7.0mph /  11.3km/h 11.0mph /  17.7km/h 65% 0.00in /  0mm
20:04 68.2 °F /  20.1 °C 56.0 °F /  13.3 °C 29.88in /  1011.7hPa WSW 6.0mph /  9.7km/h 15.0mph /  24.1km/h 65% 0.00in /  0mm
20:09 68.2 °F /  20.1 °C 56.0 °F /  13.3 °C 29.88in /  1011.7hPa SSW 4.0mph /  6.4km/h 12.0mph /  19.3km/h 65% 0.00in /  0mm
20:14 68.1 °F /  20.1 °C 55.9 °F /  13.3 °C 29.88in /  1011.7hPa SW 3.0mph /  4.8km/h 11.0mph /  17.7km/h 65% 0.00in /  0mm
20:19 68.0 °F /  20 °C 55.8 °F /  13.2 °C 29.88in /  1011.7hPa SSW 2.0mph /  3.2km/h 9.0mph /  14.5km/h 65% 0.00in /  0mm
20:24 67.9 °F /  19.9 °C 55.3 °F /  12.9 °C 29.88in /  1011.7hPa SSW 5.0mph /  8km/h 11.0mph /  17.7km/h 64% 0.00in /  0mm
20:29 67.8 °F /  19.9 °C 55.2 °F /  12.9 °C 29.87in /  1011.4hPa SW 5.0mph /  8km/h 11.0mph /  17.7km/h 64% 0.00in /  0mm
20:34 67.7 °F /  19.8 °C 55.1 °F /  12.8 °C 29.87in /  1011.4hPa SW 4.0mph /  6.4km/h 10.0mph /  16.1km/h 64% 0.00in /  0mm
20:39 67.6 °F /  19.8 °C 55.4 °F /  13 °C 29.87in /  1011.4hPa SW 4.0mph /  6.4km/h 10.0mph /  16.1km/h 65% 0.00in /  0mm
20:44 67.6 °F /  19.8 °C 55.4 °F /  13 °C 29.87in /  1011.4hPa SW 4.0mph /  6.4km/h 10.0mph /  16.1km/h 65% 0.00in /  0mm
20:49 67.4 °F /  19.7 °C 55.6 °F /  13.1 °C 29.87in /  1011.4hPa SSW 2.0mph /  3.2km/h 7.0mph /  11.3km/h 66% 0.00in /  0mm
20:54 67.4 °F /  19.7 °C 56.1 °F /  13.4 °C 29.88in /  1011.7hPa SW 3.0mph /  4.8km/h 7.0mph /  11.3km/h 67% 0.00in /  0mm
20:59 67.4 °F /  19.7 °C 56.1 °F /  13.4 °C 29.88in /  1011.7hPa WSW 5.0mph /  8km/h 9.0mph /  14.5km/h 67% 0.00in /  0mm
21:04 67.6 °F /  19.8 °C 56.2 °F /  13.4 °C 29.88in /  1011.7hPa SSW 5.0mph /  8km/h 7.0mph /  11.3km/h 67% 0.00in /  0mm
21:09 67.7 °F /  19.8 °C 56.3 °F /  13.5 °C 29.88in /  1011.7hPa South 3.0mph /  4.8km/h 10.0mph /  16.1km/h 67% 0.00in /  0mm
21:14 67.7 °F /  19.8 °C 56.3 °F /  13.5 °C 29.88in /  1011.7hPa South 4.0mph /  6.4km/h 7.0mph /  11.3km/h 67% 0.00in /  0mm
21:19 67.7 °F /  19.8 °C 55.9 °F /  13.3 °C 29.87in /  1011.4hPa SW 5.0mph /  8km/h 7.0mph /  11.3km/h 66% 0.00in /  0mm
21:24 67.9 °F /  19.9 °C 56.1 °F /  13.4 °C 29.87in /  1011.4hPa SW 4.0mph /  6.4km/h 8.0mph /  12.9km/h 66% 0.00in /  0mm
21:29 67.9 °F /  19.9 °C 55.7 °F /  13.2 °C 29.88in /  1011.7hPa WSW 3.0mph /  4.8km/h 8.0mph /  12.9km/h 65% 0.00in /  0mm
21:34 68.1 °F /  20.1 °C 55.5 °F /  13.1 °C 29.88in /  1011.7hPa WSW 4.0mph /  6.4km/h 10.0mph /  16.1km/h 64% 0.00in /  0mm
21:39 68.2 °F /  20.1 °C 55.6 °F /  13.1 °C 29.88in /  1011.7hPa WSW 5.0mph /  8km/h 10.0mph /  16.1km/h 64% 0.00in /  0mm
21:44 68.3 °F /  20.2 °C 56.1 °F /  13.4 °C 29.88in /  1011.7hPa WSW 2.0mph /  3.2km/h 10.0mph /  16.1km/h 65% 0.00in /  0mm
21:49 68.3 °F /  20.2 °C 56.5 °F /  13.6 °C 29.89in /  1012.1hPa NW 5.0mph /  8km/h 9.0mph /  14.5km/h 66% 0.00in /  0mm
21:54 68.2 °F /  20.1 °C 56.4 °F /  13.6 °C 29.90in /  1012.4hPa West 5.0mph /  8km/h 11.0mph /  17.7km/h 66% 0.00in /  0mm
21:59 66.6 °F /  19.2 °C 55.3 °F /  12.9 °C 29.91in /  1012.8hPa NW 6.0mph /  9.7km/h 13.0mph /  20.9km/h 67% 0.00in /  0mm
22:04 64.3 °F /  17.9 °C 54.7 °F /  12.6 °C 29.91in /  1012.8hPa North 4.0mph /  6.4km/h 10.0mph /  16.1km/h 71% 0.00in /  0mm
22:09 62.8 °F /  17.1 °C 54.4 °F /  12.4 °C 29.92in /  1013.1hPa West 5.0mph /  8km/h 15.0mph /  24.1km/h 74% 0.00in /  0mm
22:14 62.0 °F /  16.7 °C 54.3 °F /  12.4 °C 29.91in /  1012.8hPa WNW 3.0mph /  4.8km/h 8.0mph /  12.9km/h 76% 0.00in /  0mm
22:19 61.6 °F /  16.4 °C 54.3 °F /  12.4 °C 29.91in /  1012.8hPa West 3.0mph /  4.8km/h 9.0mph /  14.5km/h 77% 0.00in /  0mm
22:24 61.4 °F /  16.3 °C 54.5 °F /  12.5 °C 29.91in /  1012.8hPa NNW 3.0mph /  4.8km/h 9.0mph /  14.5km/h 78% 0.00in /  0mm
22:29 61.2 °F /  16.2 °C 54.3 °F /  12.4 °C 29.92in /  1013.1hPa NW 3.0mph /  4.8km/h 6.0mph /  9.7km/h 78% 0.00in /  0mm
22:34 61.3 °F /  16.3 °C 54.4 °F /  12.4 °C 29.92in /  1013.1hPa NW 3.0mph /  4.8km/h 8.0mph /  12.9km/h 78% 0.00in /  0mm
22:39 61.3 °F /  16.3 °C 54.4 °F /  12.4 °C 29.92in /  1013.1hPa NW 3.0mph /  4.8km/h 8.0mph /  12.9km/h 78% 0.00in /  0mm
22:44 61.2 °F /  16.2 °C 54.6 °F /  12.6 °C 29.92in /  1013.1hPa NW 3.0mph /  4.8km/h 6.0mph /  9.7km/h 79% 0.00in /  0mm
22:49 61.0 °F /  16.1 °C 54.8 °F /  12.7 °C 29.93in /  1013.4hPa West 3.0mph /  4.8km/h 6.0mph /  9.7km/h 80% 0.00in /  0mm
22:54 60.8 °F /  16 °C 55.3 °F /  12.9 °C 29.93in /  1013.4hPa WNW 3.0mph /  4.8km/h 6.0mph /  9.7km/h 82% 0.00in /  0mm
22:59 60.6 °F /  15.9 °C 55.1 °F /  12.8 °C 29.93in /  1013.4hPa West 1.0mph /  1.6km/h 6.0mph /  9.7km/h 82% 0.00in /  0mm
23:04 60.4 °F /  15.8 °C 55.2 °F /  12.9 °C 29.93in /  1013.4hPa Calm   3.0mph /  4.8km/h 83% 0.00in /  0mm
23:09 60.3 °F /  15.7 °C 55.4 °F /  13 °C 29.92in /  1013.1hPa SSE 1.0mph /  1.6km/h 4.0mph /  6.4km/h 84% 0.00in /  0mm
23:14 60.3 °F /  15.7 °C 55.4 °F /  13 °C 29.93in /  1013.4hPa SW 1.0mph /  1.6km/h 4.0mph /  6.4km/h 84% 0.01in /  0.25mm
23:19 60.2 °F /  15.7 °C 55.7 °F /  13.2 °C 29.91in /  1012.8hPa East 5.0mph /  8km/h 6.0mph /  9.7km/h 85% 0.02in /  0.51mm
23:24 60.1 °F /  15.6 °C 55.6 °F /  13.1 °C 29.91in /  1012.8hPa South 1.0mph /  1.6km/h 6.0mph /  9.7km/h 85% 0.02in /  0.51mm
23:29 60.1 °F /  15.6 °C 55.9 °F /  13.3 °C 29.92in /  1013.1hPa South 1.0mph /  1.6km/h 5.0mph /  8km/h 86% 0.02in /  0.51mm
23:34 60.1 °F /  15.6 °C 55.9 °F /  13.3 °C 29.91in /  1012.8hPa South 2.0mph /  3.2km/h 5.0mph /  8km/h 86% 0.02in /  0.51mm
23:39 60.2 °F /  15.7 °C 56.0 °F /  13.3 °C 29.91in /  1012.8hPa South 1.0mph /  1.6km/h 5.0mph /  8km/h 86% 0.02in /  0.51mm
23:44 60.2 °F /  15.7 °C 56.0 °F /  13.3 °C 29.90in /  1012.4hPa SSE 1.0mph /  1.6km/h 3.0mph /  4.8km/h 86% 0.03in /  0.76mm
23:49 60.3 °F /  15.7 °C 56.4 °F /  13.6 °C 29.90in /  1012.4hPa SSE 2.0mph /  3.2km/h 4.0mph /  6.4km/h 87% 0.03in /  0.76mm
23:54 60.3 °F /  15.7 °C 56.4 °F /  13.6 °C 29.90in /  1012.4hPa South 1.0mph /  1.6km/h 3.0mph /  4.8km/h 87% 0.03in /  0.76mm
23:59 60.3 °F /  15.7 °C 56.4 °F /  13.6 °C 29.90in /  1012.4hPa South 1.0mph /  1.6km/h 3.0mph /  4.8km/h 87% 0.03in /  0.76mm
Buffalo, New York, USA
Compliments of Weather Underground - 2.5 mb